Time;durP1;ratioP1;P1;durP2;ratioP2;P2;SDS_P1;SDS_P2;PMS_P1;PMS_P2;Temp;Humidity;BMP_temperature;BMP_pressure;BME280_temperature;BME280_humidity;BME280_pressure;Samples;Min_cycle;Max_cycle;Signal;HPM_P1;HPM_P2
2021/12/09 00:01:59;;;;;;;;;38.50;35.75;;;;;3.92;65.83;98451.13;4968309;28;8875;-74
2021/12/09 00:04:29;;;;;;;;;43.75;39.50;;;;;3.89;64.66;98436.47;4967952;28;8859;-76
2021/12/09 00:07:00;;;;;;;;;49.75;42.50;;;;;3.85;66.27;98427.00;4951620;28;8873;-79
2021/12/09 00:09:29;;;;;;;;;50.50;42.50;;;;;4.01;65.64;98409.94;4971688;28;8992;-76
2021/12/09 00:11:59;;;;;;;;;30.75;27.75;;;;;3.97;64.75;98397.84;4974897;28;8934;-76
2021/12/09 00:14:32;;;;;;;;;37.25;33.50;;;;;4.02;65.28;98389.31;4974872;28;8834;-76
2021/12/09 00:17:05;;;;;;;;;39.25;34.00;;;;;4.01;66.38;98395.31;4990924;28;8960;-77
2021/12/09 00:19:35;;;;;;;;;41.75;37.50;;;;;4.06;65.13;98397.94;4990684;28;8874;-76
2021/12/09 00:22:04;;;;;;;;;39.50;33.75;;;;;3.97;66.20;98383.28;4990962;28;9029;-74
2021/12/09 00:24:33;;;;;;;;;40.00;37.50;;;;;3.88;66.29;98394.38;4990773;28;8896;-76
2021/12/09 00:27:04;;;;;;;;;36.50;32.75;;;;;3.82;66.21;98394.34;4974685;28;8846;-77
2021/12/09 00:29:34;;;;;;;;;37.25;33.50;;;;;3.71;66.47;98396.81;5007196;28;8858;-76
2021/12/09 00:32:04;;;;;;;;;35.00;28.75;;;;;3.76;66.31;98402.00;5007009;28;9052;-76
2021/12/09 00:34:36;;;;;;;;;32.75;30.00;;;;;3.81;65.84;98392.59;4970841;28;8881;-76
2021/12/09 00:37:17;;;;;;;;;31.60;28.80;;;;;3.88;64.96;98388.34;5002371;28;8861;-79
2021/12/09 00:39:49;;;;;;;;;29.75;26.75;;;;;3.93;64.48;98380.63;4959354;28;8881;-75
2021/12/09 00:42:18;;;;;;;;;26.00;22.25;;;;;3.98;64.38;98386.69;4970677;28;8852;-77
2021/12/09 00:44:48;;;;;;;;;29.75;29.00;;;;;4.05;64.86;98389.34;4970820;28;9000;-75
2021/12/09 00:47:17;;;;;;;;;32.75;29.25;;;;;4.15;64.08;98397.13;4939012;28;8892;-78
2021/12/09 00:49:47;;;;;;;;;31.00;30.75;;;;;4.20;64.02;98396.31;4970703;28;8944;-75
2021/12/09 00:52:16;;;;;;;;;33.00;31.25;;;;;4.30;63.37;98385.19;4953796;28;8857;-75
2021/12/09 00:54:46;;;;;;;;;30.50;26.50;;;;;4.33;63.09;98383.47;4953756;28;8880;-77
2021/12/09 00:57:15;;;;;;;;;21.75;18.75;;;;;4.30;63.89;98384.31;4954333;28;8861;-77
2021/12/09 00:59:43;;;;;;;;;29.25;27.25;;;;;4.32;63.28;98377.44;4954373;28;8880;-77
2021/12/09 01:02:13;;;;;;;;;31.00;26.60;;;;;4.37;63.63;98382.66;4983925;28;8978;-77
2021/12/09 01:04:44;;;;;;;;;32.50;29.25;;;;;4.36;64.22;98374.03;4956069;28;8861;-78
2021/12/09 01:07:14;;;;;;;;;34.00;29.50;;;;;4.39;63.33;98380.94;4974329;28;8854;-77
2021/12/09 01:09:43;;;;;;;;;30.25;27.50;;;;;4.41;63.23;98379.22;4991720;28;8881;-77
2021/12/09 01:12:12;;;;;;;;;36.50;32.25;;;;;4.36;63.80;98373.16;5007398;28;8862;-76
2021/12/09 01:14:41;;;;;;;;;26.75;25.50;;;;;4.45;63.13;98379.25;5007854;28;8924;-76
2021/12/09 01:17:11;;;;;;;;;36.75;30.50;;;;;4.58;62.98;98389.63;5006604;28;8899;-74
2021/12/09 01:19:41;;;;;;;;;30.50;26.75;;;;;4.57;63.10;98395.66;5006260;28;9635;-75
2021/12/09 01:22:11;;;;;;;;;32.80;28.80;;;;;4.66;63.13;98382.78;4985472;28;8849;-75
2021/12/09 01:24:40;;;;;;;;;35.75;30.50;;;;;4.81;62.86;98376.81;5004413;28;8873;-76
2021/12/09 01:27:09;;;;;;;;;31.25;27.75;;;;;4.82;62.62;98365.59;4990300;28;9038;-77
2021/12/09 01:29:41;;;;;;;;;27.50;26.00;;;;;4.78;61.48;98363.88;5008796;28;8978;-75
2021/12/09 01:32:12;;;;;;;;;31.00;28.50;;;;;4.80;62.91;98363.06;5008988;28;8867;-78
2021/12/09 01:34:43;;;;;;;;;27.75;21.50;;;;;4.81;62.26;98358.75;5006485;28;8864;-75
2021/12/09 01:37:13;;;;;;;;;29.50;26.00;;;;;4.81;61.46;98357.00;4992855;28;8855;-77
2021/12/09 01:39:43;;;;;;;;;30.25;29.75;;;;;4.73;61.75;98350.97;5009350;28;8908;-77
2021/12/09 01:42:12;;;;;;;;;32.75;28.25;;;;;4.85;62.01;98368.22;4976340;28;8878;-75
2021/12/09 01:44:40;;;;;;;;;34.50;29.00;;;;;4.95;61.50;98351.03;5005174;28;8866;-75
2021/12/09 01:47:09;;;;;;;;;29.25;27.00;;;;;5.01;62.09;98346.75;4974217;28;8872;-77
2021/12/09 01:49:38;;;;;;;;;29.50;26.50;;;;;5.04;61.33;98346.72;4954154;28;8975;-77
2021/12/09 01:52:08;;;;;;;;;29.00;29.00;;;;;5.01;60.98;98357.06;4986066;28;8979;-77
2021/12/09 01:54:37;;;;;;;;;32.25;30.75;;;;;4.95;61.28;98358.78;4978158;28;8858;-79
2021/12/09 01:57:08;;;;;;;;;26.75;25.75;;;;;4.91;61.56;98351.88;4989038;28;8866;-77
2021/12/09 01:59:36;;;;;;;;;31.50;27.00;;;;;4.81;61.40;98343.25;4974531;28;8917;-78
2021/12/09 02:02:05;;;;;;;;;31.25;26.25;;;;;4.88;61.50;98334.66;4991282;28;8862;-75
2021/12/09 02:04:34;;;;;;;;;34.50;28.25;;;;;4.89;61.24;98333.78;4951752;28;8973;-77
2021/12/09 02:07:03;;;;;;;;;28.25;25.00;;;;;4.84;61.12;98343.25;4948004;29;8878;-78
2021/12/09 02:09:35;;;;;;;;;30.50;26.25;;;;;4.77;61.57;98342.38;4956086;28;8946;-75
2021/12/09 02:12:04;;;;;;;;;32.00;25.00;;;;;4.68;61.83;98337.16;4963458;28;8993;-76
2021/12/09 02:14:33;;;;;;;;;28.40;23.00;;;;;4.74;61.46;98337.19;4979431;28;8886;-75
2021/12/09 02:17:02;;;;;;;;;30.75;27.25;;;;;4.72;61.60;98332.88;4931430;29;9608;-75
2021/12/09 02:19:31;;;;;;;;;30.00;27.50;;;;;4.62;62.29;98326.81;4963362;28;9651;-75
2021/12/09 02:22:03;;;;;;;;;23.60;23.00;;;;;4.60;61.90;98329.41;4931571;29;8965;-76
2021/12/09 02:24:31;;;;;;;;;37.75;29.50;;;;;4.65;62.32;98327.69;4931344;29;9666;-75
2021/12/09 02:27:00;;;;;;;;;27.75;27.00;;;;;4.64;61.75;98320.81;4947463;29;8882;-77
2021/12/09 02:29:29;;;;;;;;;28.25;27.00;;;;;4.64;61.21;98325.13;4965909;28;8917;-77
2021/12/09 02:31:59;;;;;;;;;29.75;28.00;;;;;4.54;62.26;98329.38;4950795;28;8900;-78
2021/12/09 02:34:27;;;;;;;;;31.25;25.75;;;;;4.54;61.84;98324.22;4935010;28;9052;-79
2021/12/09 02:36:56;;;;;;;;;29.50;28.75;;;;;4.43;63.38;98323.31;4972872;28;8880;-76
2021/12/09 02:39:26;;;;;;;;;26.75;25.50;;;;;4.39;62.67;98322.44;4989495;28;8942;-76
2021/12/09 02:41:55;;;;;;;;;25.75;21.75;;;;;4.43;62.74;98325.91;4993158;28;8865;-75
2021/12/09 02:44:24;;;;;;;;;34.25;26.00;;;;;4.48;62.73;98314.72;4946026;28;8862;-74
2021/12/09 02:46:56;;;;;;;;;31.75;27.00;;;;;4.51;62.36;98313.88;4976956;28;8858;-75
2021/12/09 02:49:27;;;;;;;;;23.75;21.75;;;;;4.44;62.22;98291.47;5010792;28;8900;-78
2021/12/09 02:51:58;;;;;;;;;25.25;22.00;;;;;4.56;62.46;98288.09;5027466;28;8888;-76
2021/12/09 02:54:29;;;;;;;;;27.60;25.40;;;;;4.69;61.82;98282.97;5011769;28;8842;-75
2021/12/09 02:57:00;;;;;;;;;30.00;23.25;;;;;4.79;61.67;98288.16;4989078;28;8852;-75
2021/12/09 02:59:31;;;;;;;;;22.00;20.75;;;;;4.86;62.08;98290.75;4984346;28;8972;-74
2021/12/09 03:02:02;;;;;;;;;31.25;28.50;;;;;4.91;61.34;98295.03;5008209;28;8850;-77
2021/12/09 03:04:39;;;;;;;;;36.20;28.00;;;;;4.92;61.75;98295.06;5009333;28;8847;-76
2021/12/09 03:07:11;;;;;;;;;26.00;23.00;;;;;4.96;60.80;98291.63;4960110;28;8887;-76
2021/12/09 03:09:49;;;;;;;;;25.33;24.67;;;;;4.98;61.24;98289.03;4992302;28;8862;-76
2021/12/09 03:12:22;;;;;;;;;25.80;21.40;;;;;4.99;60.95;98286.47;4991650;28;9005;-74
2021/12/09 03:14:51;;;;;;;;;29.50;27.75;;;;;4.95;60.74;98291.59;4992325;28;8940;-77
2021/12/09 03:17:20;;;;;;;;;24.75;21.75;;;;;4.97;61.78;98280.44;4952797;28;9007;-76
2021/12/09 03:19:50;;;;;;;;;21.40;19.40;;;;;4.89;62.13;98272.66;4937329;28;8888;-75
2021/12/09 03:22:19;;;;;;;;;31.25;26.25;;;;;4.89;61.46;98264.91;4953413;28;8853;-74
2021/12/09 03:24:50;;;;;;;;;23.00;23.00;;;;;4.97;61.75;98269.22;4922164;28;8891;-75
2021/12/09 03:27:19;;;;;;;;;23.40;20.60;;;;;5.04;60.76;98260.63;4972085;28;10035;-80
2021/12/09 03:29:48;;;;;;;;;29.80;23.60;;;;;5.08;61.84;98264.94;4972621;28;8848;-77
2021/12/09 03:32:21;;;;;;;;;29.60;26.00;;;;;5.17;60.88;98262.34;4988585;28;8887;-76
2021/12/09 03:34:50;;;;;;;;;23.40;20.60;;;;;5.22;61.43;98249.44;4972436;28;8893;-78
2021/12/09 03:37:21;;;;;;;;;23.40;21.40;;;;;5.26;61.67;98251.16;4988592;28;8860;-75
2021/12/09 03:39:52;;;;;;;;;20.00;17.60;;;;;5.36;60.32;98257.19;4971791;28;8888;-75
2021/12/09 03:42:24;;;;;;;;;27.00;23.20;;;;;5.30;60.97;98244.28;4988015;28;8873;-76
2021/12/09 03:44:53;;;;;;;;;22.80;20.20;;;;;5.37;60.59;98236.50;4972473;28;8876;-75
2021/12/09 03:47:25;;;;;;;;;25.60;22.20;;;;;5.32;60.73;98233.06;4954015;28;8891;-75
2021/12/09 03:49:54;;;;;;;;;26.00;25.00;;;;;5.25;61.77;98224.47;5002636;28;8857;-76
2021/12/09 03:52:23;;;;;;;;;24.20;22.80;;;;;5.26;61.44;98227.91;4972990;28;9291;-75
2021/12/09 03:54:53;;;;;;;;;23.60;21.40;;;;;5.20;61.68;98228.78;4984483;28;9596;-75
2021/12/09 03:57:22;;;;;;;;;25.40;22.80;;;;;5.17;61.80;98222.72;5009010;28;8877;-76
2021/12/09 03:59:51;;;;;;;;;26.40;22.80;;;;;5.22;61.22;98221.03;4992695;28;8877;-75
2021/12/09 04:02:21;;;;;;;;;26.80;23.80;;;;;5.17;61.67;98222.72;4992107;28;8872;-76
2021/12/09 04:04:50;;;;;;;;;24.40;20.80;;;;;5.11;61.74;98212.41;5010218;28;8897;-77
2021/12/09 04:07:18;;;;;;;;;21.40;20.20;;;;;5.14;62.08;98215.84;4993669;28;8850;-76
2021/12/09 04:09:47;;;;;;;;;25.20;23.00;;;;;5.20;61.37;98235.66;4992639;28;8854;-76
2021/12/09 04:12:19;;;;;;;;;25.75;22.25;;;;;5.27;61.98;98234.78;4975077;28;8835;-75
2021/12/09 04:14:48;;;;;;;;;28.60;24.60;;;;;5.20;61.88;98215.00;4971747;28;8868;-77
2021/12/09 04:17:17;;;;;;;;;24.20;23.00;;;;;5.18;62.24;98203.78;4943764;29;8855;-75
2021/12/09 04:19:47;;;;;;;;;22.80;22.80;;;;;5.07;62.57;98196.91;4918337;29;9617;-77
2021/12/09 04:22:18;;;;;;;;;32.75;25.25;;;;;4.93;63.54;98190.00;4913712;29;8970;-75
2021/12/09 04:24:46;;;;;;;;;30.40;29.00;;;;;4.87;63.71;98208.94;4929972;29;8863;-76
2021/12/09 04:27:17;;;;;;;;;32.00;30.80;;;;;4.86;63.67;98189.16;4945016;29;8882;-77
2021/12/09 04:29:45;;;;;;;;;27.00;25.00;;;;;4.77;64.04;98171.94;4929802;29;8887;-75
2021/12/09 04:32:15;;;;;;;;;27.60;23.00;;;;;4.73;64.08;98174.53;4929071;29;8886;-76
2021/12/09 04:34:44;;;;;;;;;29.75;27.75;;;;;4.71;64.13;98179.69;4929046;29;8851;-75
2021/12/09 04:37:13;;;;;;;;;28.00;26.50;;;;;4.74;64.65;98187.41;4929062;29;8949;-75
2021/12/09 04:39:42;;;;;;;;;27.80;26.20;;;;;4.68;64.90;98190.00;4897415;29;8894;-75
2021/12/09 04:42:11;;;;;;;;;33.50;29.50;;;;;4.71;65.17;98196.88;4907804;29;9046;-74
2021/12/09 04:44:41;;;;;;;;;25.25;24.00;;;;;4.71;64.62;98186.53;4875642;29;8908;-78
2021/12/09 04:47:10;;;;;;;;;25.25;25.00;;;;;4.81;64.55;98165.91;4878568;29;9760;-73
2021/12/09 04:49:39;;;;;;;;;28.75;26.25;;;;;4.80;64.49;98181.38;4947147;28;9722;-75
2021/12/09 04:52:08;;;;;;;;;28.00;24.00;;;;;4.70;64.51;98177.94;4968886;28;8954;-74
2021/12/09 04:54:41;;;;;;;;;24.00;22.40;;;;;4.78;65.02;98170.19;4970712;28;8860;-75
2021/12/09 04:57:10;;;;;;;;;29.75;25.50;;;;;4.80;64.52;98161.63;4986741;28;8981;-75
2021/12/09 04:59:41;;;;;;;;;29.60;22.60;;;;;4.83;64.70;98137.50;4986947;28;8895;-79
2021/12/09 05:02:21;;;;;;;;;28.00;26.20;;;;;4.75;64.90;98147.81;4970606;28;8868;-76
2021/12/09 05:04:49;;;;;;;;;21.60;21.60;;;;;4.81;65.04;98163.31;4986907;28;9763;-74
2021/12/09 05:07:18;;;;;;;;;22.25;20.25;;;;;4.93;64.49;98179.69;4955387;28;8856;-73
2021/12/09 05:09:50;;;;;;;;;28.50;24.50;;;;;4.95;64.36;98193.44;4941451;28;9768;-77
2021/12/09 05:12:21;;;;;;;;;26.40;22.80;;;;;4.98;64.34;98198.63;4954198;28;8864;-76
2021/12/09 05:14:51;;;;;;;;;24.00;23.00;;;;;5.03;64.48;98196.91;4986748;28;8872;-75
2021/12/09 05:17:20;;;;;;;;;24.00;19.25;;;;;5.06;64.32;98200.31;4989817;28;8854;-76
2021/12/09 05:19:49;;;;;;;;;22.60;22.60;;;;;5.13;63.89;98208.09;5002979;28;8872;-75
2021/12/09 05:22:18;;;;;;;;;25.75;23.25;;;;;5.10;63.84;98195.16;5012893;28;8856;-75
2021/12/09 05:24:49;;;;;;;;;27.00;20.40;;;;;5.06;63.67;98165.88;5003076;28;9598;-76
2021/12/09 05:27:18;;;;;;;;;22.80;22.80;;;;;5.09;63.65;98168.47;4987387;28;8930;-74
2021/12/09 05:30:02;;;;;;;;;20.00;19.00;;;;;5.10;64.07;98157.28;4987632;28;8869;-76
2021/12/09 05:32:32;;;;;;;;;26.00;23.50;;;;;5.02;63.67;98144.34;4987776;28;8860;-75
2021/12/09 05:35:02;;;;;;;;;19.20;17.80;;;;;4.91;63.61;98140.06;4985944;28;8854;-76
2021/12/09 05:37:31;;;;;;;;;27.20;24.00;;;;;4.97;63.62;98142.63;4977998;28;8924;-76
2021/12/09 05:40:00;;;;;;;;;19.20;18.60;;;;;4.90;63.89;98131.47;4999000;28;8922;-77
2021/12/09 05:42:31;;;;;;;;;20.20;18.00;;;;;4.81;64.24;98123.72;4989798;28;8984;-79
2021/12/09 05:45:00;;;;;;;;;26.60;21.60;;;;;4.73;64.94;98123.72;4973760;28;9029;-76
2021/12/09 05:47:30;;;;;;;;;23.80;21.60;;;;;4.77;64.35;98122.00;4989762;28;8867;-74
2021/12/09 05:50:01;;;;;;;;;23.80;22.60;;;;;4.66;64.13;98125.44;4970136;28;8870;-77
2021/12/09 05:52:29;;;;;;;;;19.00;17.80;;;;;4.80;64.20;98138.38;4980773;28;8914;-78
2021/12/09 05:54:58;;;;;;;;;18.40;18.40;;;;;4.88;63.61;98146.97;4934713;28;8888;-75
2021/12/09 05:57:27;;;;;;;;;23.00;21.60;;;;;4.99;62.76;98156.41;4950475;28;8880;-76
2021/12/09 05:59:56;;;;;;;;;19.00;18.60;;;;;5.00;63.51;98156.41;4966590;28;8967;-75
2021/12/09 06:02:24;;;;;;;;;20.00;16.20;;;;;5.04;63.15;98160.72;4966863;28;8982;-77
2021/12/09 06:04:53;;;;;;;;;20.20;16.20;;;;;5.06;63.01;98165.88;4906404;28;8872;-77
2021/12/09 06:07:23;;;;;;;;;26.80;18.80;;;;;5.10;62.69;98166.75;4989434;28;8882;-78
2021/12/09 06:09:52;;;;;;;;;20.00;17.40;;;;;5.19;62.91;98161.56;4973612;28;8862;-79
2021/12/09 06:12:26;;;;;;;;;23.20;18.40;;;;;5.17;62.96;98138.31;4973714;28;8890;-77
2021/12/09 06:14:54;;;;;;;;;17.40;15.00;;;;;5.07;62.43;98141.78;4973711;28;8984;-75
2021/12/09 06:17:23;;;;;;;;;17.00;15.20;;;;;5.10;63.06;98151.25;4925792;28;8870;-76
2021/12/09 06:19:52;;;;;;;;;21.20;18.40;;;;;5.18;62.41;98144.34;4958706;28;8846;-76
2021/12/09 06:22:20;;;;;;;;;18.60;18.40;;;;;5.19;62.01;98134.00;4975981;28;9022;-78
2021/12/09 06:24:50;;;;;;;;;15.20;15.20;;;;;5.21;62.13;98132.28;4982497;28;9039;-76
2021/12/09 06:27:19;;;;;;;;;11.20;11.20;;;;;5.14;61.83;98137.47;4989909;28;8870;-75
2021/12/09 06:29:48;;;;;;;;;18.60;14.80;;;;;5.15;62.65;98127.13;4976983;28;9690;-76
2021/12/09 06:32:17;;;;;;;;;19.20;16.00;;;;;5.11;61.71;98121.97;4996292;28;8909;-75
2021/12/09 06:34:45;;;;;;;;;12.60;12.40;;;;;5.14;62.23;98130.59;4977087;28;8858;-77
2021/12/09 06:37:14;;;;;;;;;16.00;14.00;;;;;5.14;61.70;98135.75;4976755;28;9757;-76
2021/12/09 06:39:43;;;;;;;;;13.60;13.20;;;;;5.22;61.49;98134.00;4961305;28;8863;-78
2021/12/09 06:42:16;;;;;;;;;14.00;14.00;;;;;5.24;61.29;98126.25;4994231;28;9029;-77
2021/12/09 06:44:44;;;;;;;;;15.60;12.60;;;;;5.21;60.77;98123.66;5011677;28;8908;-77
2021/12/09 06:47:13;;;;;;;;;12.00;12.00;;;;;5.23;61.29;98125.38;4962048;28;8850;-75
2021/12/09 06:49:43;;;;;;;;;12.60;12.60;;;;;5.28;61.39;98117.63;4960534;28;9646;-76
2021/12/09 06:52:14;;;;;;;;;16.40;15.00;;;;;5.23;61.16;98129.69;4993406;28;8928;-77
2021/12/09 06:54:42;;;;;;;;;15.40;15.40;;;;;5.21;61.01;98113.34;4993806;28;8866;-76
2021/12/09 06:57:11;;;;;;;;;17.20;13.80;;;;;5.25;60.80;98117.63;5010438;28;8870;-79
2021/12/09 06:59:41;;;;;;;;;12.20;10.60;;;;;5.34;60.92;98129.69;5011444;28;8866;-77
2021/12/09 07:02:10;;;;;;;;;12.80;12.80;;;;;5.31;61.12;98111.56;5009682;28;9618;-79
2021/12/09 07:04:39;;;;;;;;;13.60;12.60;;;;;5.25;60.99;98108.16;4998999;28;8963;-78
2021/12/09 07:07:07;;;;;;;;;16.00;13.20;;;;;5.36;61.31;98112.44;5011551;28;8870;-79
2021/12/09 07:09:38;;;;;;;;;16.00;13.60;;;;;5.47;60.73;98111.53;4979497;28;8921;-79
2021/12/09 07:12:08;;;;;;;;;12.60;11.40;;;;;5.51;60.71;98099.44;5009849;28;8890;-76
2021/12/09 07:14:37;;;;;;;;;15.60;13.20;;;;;5.43;60.87;98076.22;4992187;28;8858;-74
2021/12/09 07:17:07;;;;;;;;;13.80;13.80;;;;;5.47;61.22;98098.59;4992906;28;9603;-75
2021/12/09 07:19:36;;;;;;;;;12.00;9.80;;;;;5.49;61.02;98079.66;5009562;28;8870;-75
2021/12/09 07:22:05;;;;;;;;;18.00;16.20;;;;;5.55;60.53;98100.31;4993780;28;8932;-73
2021/12/09 07:24:34;;;;;;;;;20.40;14.40;;;;;5.54;60.93;98098.56;4980572;28;8936;-78
2021/12/09 07:27:04;;;;;;;;;18.20;14.80;;;;;5.62;60.52;98104.59;4993423;28;8857;-75
2021/12/09 07:29:33;;;;;;;;;17.20;12.00;;;;;5.65;60.50;98095.09;4993603;28;8880;-75
2021/12/09 07:32:01;;;;;;;;;13.60;13.00;;;;;5.64;61.11;98101.13;5009738;28;8870;-76
2021/12/09 07:34:32;;;;;;;;;9.00;9.00;;;;;5.72;60.39;98100.25;5010950;28;8882;-74
2021/12/09 07:37:03;;;;;;;;;12.80;12.20;;;;;5.74;60.72;98109.69;5009743;28;8885;-75
2021/12/09 07:39:34;;;;;;;;;9.00;9.00;;;;;5.81;60.14;98105.38;4987539;28;8991;-77
2021/12/09 07:42:04;;;;;;;;;8.00;7.40;;;;;5.90;60.47;98112.22;4990228;28;8842;-74
2021/12/09 07:44:33;;;;;;;;;15.60;13.20;;;;;5.85;60.16;98096.72;4991215;28;8867;-76
2021/12/09 07:47:02;;;;;;;;;16.20;13.60;;;;;5.90;60.14;98105.31;4968270;28;9593;-76
2021/12/09 07:49:32;;;;;;;;;18.40;16.60;;;;;5.92;60.26;98093.25;4951583;28;8921;-75
2021/12/09 07:52:00;;;;;;;;;13.00;12.40;;;;;6.00;59.82;98112.19;4977597;28;9008;-76
2021/12/09 07:54:29;;;;;;;;;17.20;17.00;;;;;5.96;60.17;98097.56;4974249;28;8880;-77
2021/12/09 07:56:58;;;;;;;;;14.00;13.80;;;;;6.10;59.93;98087.13;4949242;28;8884;-77
2021/12/09 07:59:27;;;;;;;;;13.80;13.80;;;;;6.11;59.58;98090.59;4968152;28;8877;-78
2021/12/09 08:01:56;;;;;;;;;17.60;14.60;;;;;6.16;59.73;98112.97;4968393;28;8994;-74
2021/12/09 08:04:26;;;;;;;;;14.00;13.80;;;;;6.20;59.29;98106.03;4954598;28;8874;-76
2021/12/09 08:07:00;;;;;;;;;17.20;16.80;;;;;6.25;59.33;98105.13;4935396;28;8855;-75
2021/12/09 08:09:29;;;;;;;;;18.60;15.80;;;;;6.27;59.28;98101.69;4911432;29;8903;-77
2021/12/09 08:11:58;;;;;;;;;14.00;13.60;;;;;6.31;58.60;98105.97;4895659;29;8954;-76
2021/12/09 08:14:26;;;;;;;;;8.60;8.60;;;;;6.24;59.36;98108.59;4921771;29;8876;-79
2021/12/09 08:17:10;;;;;;;;;13.40;13.40;;;;;6.29;59.28;98116.31;4914902;29;8873;-77
2021/12/09 08:19:41;;;;;;;;;15.40;13.00;;;;;6.28;58.79;98124.97;4914900;29;8915;-77
2021/12/09 08:22:14;;;;;;;;;16.80;13.80;;;;;6.28;58.31;98106.84;4911837;29;8887;-75
2021/12/09 08:24:43;;;;;;;;;15.80;15.80;;;;;6.32;58.68;98100.78;4922463;29;8935;-76
2021/12/09 08:27:11;;;;;;;;;11.80;11.80;;;;;6.40;58.19;98093.81;4921070;29;8909;-78
2021/12/09 08:29:40;;;;;;;;;15.60;15.60;;;;;6.33;58.14;98088.69;4893012;29;9004;-77
2021/12/09 08:32:09;;;;;;;;;15.00;14.60;;;;;6.36;58.43;98105.06;4882201;29;9017;-76
2021/12/09 08:34:37;;;;;;;;;17.60;17.40;;;;;6.34;57.92;98105.97;4908881;29;8978;-76
2021/12/09 08:37:06;;;;;;;;;15.40;14.40;;;;;6.41;58.15;98098.13;4918327;28;9055;-76
2021/12/09 08:39:37;;;;;;;;;15.80;15.80;;;;;6.46;58.09;98107.59;4939188;28;9105;-77
2021/12/09 08:42:06;;;;;;;;;16.40;14.20;;;;;6.53;58.21;98114.44;4968083;28;8856;-77
2021/12/09 08:44:35;;;;;;;;;18.60;16.20;;;;;6.52;58.31;98090.28;4967057;28;9653;-76
2021/12/09 08:47:04;;;;;;;;;14.20;14.20;;;;;6.53;57.96;98111.88;4936277;28;8978;-79
2021/12/09 08:49:34;;;;;;;;;12.40;12.00;;;;;6.49;58.45;98103.25;4967142;28;8892;-79
2021/12/09 08:52:03;;;;;;;;;13.40;9.60;;;;;6.42;57.78;98099.84;4968735;28;9598;-75
2021/12/09 08:54:32;;;;;;;;;17.80;17.80;;;;;6.38;58.38;98094.72;4920249;28;8852;-76
2021/12/09 08:57:04;;;;;;;;;20.00;18.00;;;;;6.40;58.09;98064.47;4966292;28;8949;-77
2021/12/09 08:59:33;;;;;;;;;15.20;15.20;;;;;6.41;57.88;98084.34;4951316;28;8868;-78
2021/12/09 09:02:09;;;;;;;;;18.80;14.60;;;;;6.41;58.14;98103.31;4969945;28;8857;-78
2021/12/09 09:04:38;;;;;;;;;20.40;19.40;;;;;6.44;58.38;98081.72;4983222;28;8867;-75
2021/12/09 09:07:07;;;;;;;;;15.40;12.00;;;;;6.43;58.58;98067.06;4965259;28;9155;-76
2021/12/09 09:09:38;;;;;;;;;12.00;10.60;;;;;6.42;59.16;98060.16;4970940;28;8897;-76
2021/12/09 09:12:10;;;;;;;;;12.60;12.60;;;;;6.38;58.60;98064.50;4980490;28;8877;-77
2021/12/09 09:14:39;;;;;;;;;17.00;17.00;;;;;6.40;58.02;98025.66;4973354;28;8874;-75
2021/12/09 09:17:09;;;;;;;;;16.40;16.40;;;;;6.39;57.95;98076.56;5006256;28;8878;-76
2021/12/09 09:19:38;;;;;;;;;11.80;11.80;;;;;6.41;57.82;98066.22;5007255;28;8870;-77
2021/12/09 09:22:07;;;;;;;;;13.40;13.40;;;;;6.45;57.71;98073.09;5006615;28;8997;-77
2021/12/09 09:24:35;;;;;;;;;17.40;14.40;;;;;6.49;57.97;98086.88;5007559;28;8993;-77
2021/12/09 09:27:05;;;;;;;;;18.80;16.00;;;;;6.52;57.56;98072.16;5006213;28;8981;-76
2021/12/09 09:29:37;;;;;;;;;13.60;13.20;;;;;6.52;58.43;98069.59;4990313;28;8826;-75
2021/12/09 09:32:10;;;;;;;;;17.00;16.60;;;;;6.48;59.15;98048.88;4990717;28;8947;-80
2021/12/09 09:34:40;;;;;;;;;18.80;16.40;;;;;6.50;58.33;98036.78;5005000;28;8870;-75
2021/12/09 09:37:10;;;;;;;;;14.20;13.00;;;;;6.49;58.88;98025.56;4988991;28;8995;-76
2021/12/09 09:39:42;;;;;;;;;13.80;13.40;;;;;6.46;59.00;98046.31;4987676;28;8953;-75
2021/12/09 09:42:33;;;;;;;;;13.20;11.60;;;;;6.47;58.72;98053.22;5006322;28;8939;-77
2021/12/09 09:45:04;;;;;;;;;17.40;16.20;;;;;6.55;58.26;98053.16;5007796;28;8854;-75
2021/12/09 09:47:34;;;;;;;;;13.80;13.60;;;;;6.60;57.96;98044.47;5007329;28;8858;-76
2021/12/09 09:50:06;;;;;;;;;13.40;11.60;;;;;6.62;58.11;98058.25;5006613;28;8874;-78
2021/12/09 09:52:36;;;;;;;;;12.20;12.20;;;;;6.71;58.11;98057.31;5007097;28;8869;-77
2021/12/09 09:55:09;;;;;;;;;16.40;14.00;;;;;6.71;58.15;98039.19;5006549;28;8886;-76
2021/12/09 09:57:38;;;;;;;;;16.00;14.60;;;;;6.73;58.26;98042.63;4995568;28;10664;-76
2021/12/09 10:00:11;;;;;;;;;18.20;16.80;;;;;6.79;57.45;98049.47;4944946;28;12097;-74
2021/12/09 10:02:41;;;;;;;;;20.40;15.40;;;;;6.87;57.10;98041.63;5025388;28;8910;-77
2021/12/09 10:05:10;;;;;;;;;18.20;14.20;;;;;6.88;57.11;98026.06;5025449;28;8887;-75
2021/12/09 10:07:39;;;;;;;;;19.20;16.60;;;;;6.95;56.32;98006.97;4978097;28;8891;-76
2021/12/09 10:10:09;;;;;;;;;12.00;11.40;;;;;6.96;55.45;98019.06;5026198;28;8985;-74
2021/12/09 10:12:54;;;;;;;;;13.40;13.40;;;;;6.98;55.69;98000.91;4989938;28;8996;-75
2021/12/09 10:15:37;;;;;;;;;14.60;13.20;;;;;7.06;54.82;97977.50;5026163;28;8879;-75
2021/12/09 10:18:06;;;;;;;;;15.80;13.60;;;;;7.01;55.65;97973.25;5037395;28;8881;-76
2021/12/09 10:20:48;;;;;;;;;10.20;8.00;;;;;7.01;55.08;97967.16;5027469;28;8929;-76
2021/12/09 10:23:27;;;;;;;;;12.20;11.60;;;;;6.99;54.79;97954.25;5009675;28;8879;-76
2021/12/09 10:26:21;;;;;;;;;15.60;13.60;;;;;6.96;54.94;97969.84;5025974;28;8972;-75
2021/12/09 10:28:56;;;;;;;;;17.40;16.20;;;;;7.03;54.93;97975.78;5027530;28;8870;-76
2021/12/09 10:31:29;;;;;;;;;16.20;14.80;;;;;7.04;55.01;97977.50;5044241;28;9039;-75
2021/12/09 10:34:12;;;;;;;;;14.20;13.00;;;;;7.03;54.41;97957.63;5026276;28;8896;-75
2021/12/09 10:36:44;;;;;;;;;13.60;11.40;;;;;7.05;54.10;97960.22;5025123;28;8848;-76
2021/12/09 10:39:22;;;;;;;;;16.80;16.00;;;;;7.06;55.40;97969.72;5042418;28;8967;-77
2021/12/09 10:41:52;;;;;;;;;17.80;14.40;;;;;7.12;55.15;97954.09;5024032;28;8844;-75
2021/12/09 10:44:45;;;;;;;;;18.00;15.20;;;;;7.13;54.77;97956.66;5007606;28;8888;-75
2021/12/09 10:47:24;;;;;;;;;15.20;13.80;;;;;7.18;54.77;97935.84;4968308;28;8915;-74
2021/12/09 10:50:06;;;;;;;;;15.80;15.80;;;;;7.27;55.31;97946.13;4969803;28;8884;-78
2021/12/09 10:52:42;;;;;;;;;14.40;14.40;;;;;7.34;55.08;97945.16;4969431;28;8864;-76
2021/12/09 10:55:35;;;;;;;;;14.00;14.00;;;;;7.36;54.81;97940.81;4952533;28;8939;-77
2021/12/09 10:58:09;;;;;;;;;22.40;20.80;;;;;7.40;54.88;97933.84;4962659;28;8888;-78
2021/12/09 11:00:44;;;;;;;;;14.00;14.00;;;;;7.38;55.21;97936.47;4918121;28;8901;-76
2021/12/09 11:03:20;;;;;;;;;21.20;20.60;;;;;7.46;55.64;97959.69;4954080;28;8890;-78
2021/12/09 11:05:55;;;;;;;;;17.60;17.20;;;;;7.48;55.73;97947.56;4940708;28;8897;-78
2021/12/09 11:08:31;;;;;;;;;14.00;11.00;;;;;7.45;55.19;97942.44;4925740;29;8884;-75
2021/12/09 11:11:12;;;;;;;;;20.20;16.20;;;;;7.40;55.18;97939.88;4914619;29;8896;-75
2021/12/09 11:13:53;;;;;;;;;19.00;18.20;;;;;7.37;55.32;97914.00;4875910;29;8943;-77
2021/12/09 11:16:25;;;;;;;;;19.60;19.00;;;;;7.33;55.83;97904.53;4924198;28;12666;-79
2021/12/09 11:19:05;;;;;;;;;19.00;18.60;;;;;7.37;55.29;97893.28;4933525;28;9640;-77
2021/12/09 11:21:38;;;;;;;;;16.00;15.00;;;;;7.44;55.11;97895.75;4925516;28;9000;-77
2021/12/09 11:24:11;;;;;;;;;10.40;10.40;;;;;7.45;55.09;97887.09;4943594;29;8995;-77
2021/12/09 11:26:51;;;;;;;;;15.00;13.80;;;;;7.50;54.98;97912.06;4930485;29;8876;-75
2021/12/09 11:29:23;;;;;;;;;15.80;15.00;;;;;7.64;54.58;97921.38;4945861;29;8884;-77
2021/12/09 11:32:07;;;;;;;;;6.00;2.40;;;;;7.71;55.07;97918.72;4926666;29;8922;-78
2021/12/09 11:34:45;;;;;;;;;19.00;19.00;;;;;7.68;54.89;97905.78;4938234;28;8897;-75
2021/12/09 11:37:37;;;;;;;;;20.60;18.80;;;;;7.61;55.62;97910.19;4935151;28;8910;-76
2021/12/09 11:40:20;;;;;;;;;1.40;1.40;;;;;7.52;54.94;97891.31;5023758;28;8974;-74
2021/12/09 11:42:56;;;;;;;;;21.20;16.20;;;;;7.50;55.32;97903.44;4974319;28;9000;-78
2021/12/09 11:45:27;;;;;;;;;17.80;16.20;;;;;7.60;55.00;97890.31;4983446;28;8888;-74
2021/12/09 11:47:57;;;;;;;;;16.00;16.00;;;;;7.65;54.40;97892.00;5026622;28;8872;-76
2021/12/09 11:50:31;;;;;;;;;14.80;14.40;;;;;7.73;54.70;97913.47;5026389;28;8862;-77
2021/12/09 11:53:02;;;;;;;;;13.80;12.00;;;;;7.80;53.83;97939.28;5013114;28;9656;-77